• Join FlightAware (Why Join?)
  • Login
  • US Flag 
02:19PM EDT


 

Airport Tracker/Info


-or-


 

Live Flight TrackerFlight Track Log ✈ N1944E ✈ 23-Aug-2013 ✈ KSDY - KBIL

Flight Track Log - Related Links

Times and Time Zones

All times are in EDT time to prevent confusion due to time zone crossing. See the N1944E flight status page for this flight to view local times or setup timezone preferences in your user account.

Time Position Orientation Groundspeed Altitude Reporting Facility
EDT Latitude Longitude Course Direction KTS MPH feet Rate Location/Type
07:07PM 47.6414 -104.3244 237° Southwest 133 153 3,900  Level Salt Lake Center
07:08PM 47.6203 -104.3725 237° Southwest 136 157 4,700 720 Climbing Salt Lake Center
07:09PM 47.6000 -104.4197 238° Southwest 137 158 5,400 660 Climbing Salt Lake Center
07:10PM 47.5800 -104.4681 238° Southwest 137 158 6,100 660 Climbing Salt Lake Center
07:11PM 47.5608 -104.5183 241° Southwest 139 160 6,800 720 Climbing Salt Lake Center
07:12PM 47.5364 -104.5794 239° Southwest 142 163 7,600 720 Climbing Salt Lake Center
07:13PM 47.5158 -104.6300 239° Southwest 143 165 8,300 660 Climbing Salt Lake Center
07:14PM 47.4950 -104.6811 239° Southwest 144 166 9,000 600 Climbing Salt Lake Center
07:15PM 47.4733 -104.7322 238° Southwest 146 168 9,600 600 Climbing Salt Lake Center
07:16PM 47.4522 -104.7836 239° Southwest 146 168 10,300 660 Climbing Salt Lake Center
07:17PM 47.4306 -104.8344 238° Southwest 147 169 11,000 600 Climbing Salt Lake Center
07:18PM 47.4100 -104.8886 241° Southwest 149 171 11,600 720 Climbing Salt Lake Center
07:19PM 47.3847 -104.9497 239° Southwest 148 170 12,500 780 Climbing Salt Lake Center
07:20PM 47.3628 -105.0031 239° Southwest 149 171 13,200 660 Climbing Salt Lake Center
07:21PM 47.3408 -105.0544 238° Southwest 149 171 13,900 360 Climbing Salt Lake Center
07:22PM 47.3153 -105.1108 236° Southwest 155 178 14,000  Climbing Salt Lake Center
07:23PM 47.2881 -105.1781 239° Southwest 173 199 14,000  Level Salt Lake Center
07:24PM 47.2636 -105.2447 242° Southwest 182 209 14,000  Level Salt Lake Center
07:25PM 47.2397 -105.3064 240° Southwest 180 207 14,000  Level Salt Lake Center
07:26PM 47.2117 -105.3792 240° Southwest 175 201 14,000  Level Salt Lake Center
07:27PM 47.1872 -105.4386 239° Southwest 172 198 14,000  Level Salt Lake Center
07:28PM 47.1622 -105.4967 238° Southwest 170 196 14,000  Level Salt Lake Center
07:29PM 47.1361 -105.5556 237° Southwest 171 197 14,000  Level Salt Lake Center
07:30PM 47.1097 -105.6147 237° Southwest 172 198 14,000  Level Salt Lake Center
07:31PM 47.0836 -105.6753 238° Southwest 174 200 14,000  Level Salt Lake Center
07:32PM 47.0581 -105.7358 238° Southwest 175 201 14,000  Level Salt Lake Center
07:33PM 47.0272 -105.8094 238° Southwest 175 201 14,000  Level Salt Lake Center
07:34PM 47.0025 -105.8706 239° Southwest 176 203 14,000  Level Salt Lake Center
07:36PM 46.9781 -105.9292 239° Southwest 173 199 14,000  Level Salt Lake Center
07:37PM 46.9533 -105.9889 239° Southwest 173 199 14,000  Level Salt Lake Center
07:38PM 46.9269 -106.0475 237° Southwest 172 198 14,000  Level Salt Lake Center
07:39PM 46.9025 -106.1097 240° Southwest 174 200 14,000  Level Salt Lake Center
07:40PM 46.8819 -106.1903 250° West 175 201 14,000  Level Salt Lake Center
07:41PM 46.8669 -106.2581 252° West 175 201 14,000  Level Salt Lake Center
07:42PM 46.8483 -106.3253 248° West 177 204 14,000  Level Salt Lake Center
07:43PM 46.8294 -106.3928 248° West 178 205 14,000  Level Salt Lake Center
07:44PM 46.8056 -106.4567 241° Southwest 179 206 14,000  Level Salt Lake Center
07:45PM 46.7822 -106.5214 242° Southwest 179 206 14,000  Level Salt Lake Center
07:46PM 46.7619 -106.5872 246° West 177 204 14,000  Level Salt Lake Center
07:47PM 46.7336 -106.6625 241° Southwest 177 204 14,000  Level Salt Lake Center
07:48PM 46.7064 -106.7228 237° Southwest 177 204 14,000  Level Salt Lake Center
07:49PM 46.6819 -106.7844 240° Southwest 177 204 14,000  Level Salt Lake Center
07:50PM 46.6539 -106.8444 236° Southwest 179 206 14,000  Level Salt Lake Center
07:51PM 46.6269 -106.9064 238° Southwest 182 209 14,000  Level Salt Lake Center
07:52PM 46.5894 -106.9744 231° Southwest 182 209 14,000  Level Salt Lake Center
07:53PM 46.5597 -107.0328 233° Southwest 181 208 14,000  Level Salt Lake Center
07:54PM 46.5303 -107.0931 235° Southwest 181 208 14,000  Level Salt Lake Center
07:55PM 46.5022 -107.1522 235° Southwest 180 207 14,100  Climbing Salt Lake Center
07:56PM 46.4731 -107.2125 235° Southwest 181 208 14,100  Level Salt Lake Center
07:57PM 46.4439 -107.2728 235° Southwest 182 209 14,100  Level Salt Lake Center
07:58PM 46.4100 -107.3453 236° Southwest 182 209 14,100  Level Salt Lake Center
07:59PM 46.3808 -107.4094 237° Southwest 186 214 14,100  Level Salt Lake Center
08:00PM 46.3544 -107.4706 238° Southwest 181 208 14,100  Level Salt Lake Center
08:01PM 46.3383 -107.5414 252° West 185 213 14,100  Level Salt Lake Center
08:02PM 46.3183 -107.6128 248° West 183 211 14,100  Level Salt Lake Center
08:03PM 46.2972 -107.6781 245° Southwest 182 209 14,100 -60 Level Salt Lake Center
08:04PM 46.2700 -107.7469 240° Southwest 184 212 14,000 -480 Descending Salt Lake Center
08:05PM 46.2433 -107.8178 241° Southwest 202 232 13,200 -780 Descending Salt Lake Center
08:06PM 46.2092 -107.8939 237° Southwest 210 242 12,500 -780 Descending Salt Lake Center
08:07PM 46.1708 -107.9589 230° Southwest 214 246 11,700 -840 Descending Salt Lake Center
08:09PM 46.1272 -108.0275 227° Southwest 215 247 10,800 -900 Descending Salt Lake Center
08:10PM 46.0836 -108.0811 220° Southwest 212 244 9,900 -900 Descending Salt Lake Center
08:11PM 46.0389 -108.1394 222° Southwest 203 234 9,000 -1,020 Descending Salt Lake Center
08:12PM 46.0056 -108.2050 234° Southwest 203 234 7,900 -1,020 Descending Salt Lake Center
08:13PM 45.9667 -108.2717 230° Southwest 203 234 6,900 -780 Descending Salt Lake Center
08:14PM 45.9261 -108.3217 221° Southwest 196 226 6,300 -720 Descending Salt Lake Center
08:15PM 45.8831 -108.3681 217° Southwest 184 212 5,500 -720 Descending Salt Lake Center
08:16PM 45.8467 -108.4147 222° Southwest 177 204 4,900 -480 Descending Salt Lake Center
08:17PM 45.8158 -108.4586 225° Southwest 159 183 4,600 -540 Descending Salt Lake Center
08:18PM 45.7956 -108.4961 232° Southwest 116 133 3,900 -720 Descending Salt Lake Center
08:20PM 45.8000 -108.5333 240° Southwest  Level FlightAware Approximate